sensor_id;sensor_type;location;lat;lon;timestamp;P1;durP1;ratioP1;P2;durP2;ratioP2
1507;SDS011;745;48.586;10.032;2023-02-26T00:01:30;5.00;;;3.00;;
1507;SDS011;745;48.586;10.032;2023-02-26T00:06:01;3.50;;;3.10;;
1507;SDS011;745;48.586;10.032;2023-02-26T00:10:32;3.67;;;2.60;;
1507;SDS011;745;48.586;10.032;2023-02-26T00:15:02;3.30;;;2.67;;
1507;SDS011;745;48.586;10.032;2023-02-26T00:19:34;4.90;;;2.93;;
1507;SDS011;745;48.586;10.032;2023-02-26T00:24:04;3.83;;;2.73;;
1507;SDS011;745;48.586;10.032;2023-02-26T00:28:35;5.17;;;3.20;;
1507;SDS011;745;48.586;10.032;2023-02-26T00:33:06;2.53;;;2.33;;
1507;SDS011;745;48.586;10.032;2023-02-26T00:42:30;3.10;;;2.80;;
1507;SDS011;745;48.586;10.032;2023-02-26T00:52:38;4.50;;;2.90;;
1507;SDS011;745;48.586;10.032;2023-02-26T00:57:16;3.30;;;3.00;;
1507;SDS011;745;48.586;10.032;2023-02-26T01:01:46;3.00;;;2.77;;
1507;SDS011;745;48.586;10.032;2023-02-26T01:06:18;4.67;;;2.93;;
1507;SDS011;745;48.586;10.032;2023-02-26T01:10:49;3.70;;;2.93;;
1507;SDS011;745;48.586;10.032;2023-02-26T01:15:20;3.97;;;3.53;;
1507;SDS011;745;48.586;10.032;2023-02-26T01:24:27;3.40;;;3.10;;
1507;SDS011;745;48.586;10.032;2023-02-26T01:29:00;4.60;;;3.53;;
1507;SDS011;745;48.586;10.032;2023-02-26T01:38:14;4.00;;;3.60;;
1507;SDS011;745;48.586;10.032;2023-02-26T01:42:57;4.57;;;3.70;;
1507;SDS011;745;48.586;10.032;2023-02-26T01:47:47;9.37;;;3.70;;
1507;SDS011;745;48.586;10.032;2023-02-26T01:57:16;4.20;;;3.53;;
1507;SDS011;745;48.586;10.032;2023-02-26T02:01:48;4.97;;;3.50;;
1507;SDS011;745;48.586;10.032;2023-02-26T02:06:20;3.90;;;3.37;;
1507;SDS011;745;48.586;10.032;2023-02-26T02:10:52;3.37;;;3.07;;
1507;SDS011;745;48.586;10.032;2023-02-26T02:20:25;6.53;;;3.33;;
1507;SDS011;745;48.586;10.032;2023-02-26T02:35:41;5.43;;;3.30;;
1507;SDS011;745;48.586;10.032;2023-02-26T02:40:19;3.00;;;2.80;;
1507;SDS011;745;48.586;10.032;2023-02-26T02:44:57;4.20;;;3.20;;
1507;SDS011;745;48.586;10.032;2023-02-26T02:49:33;5.50;;;3.00;;
1507;SDS011;745;48.586;10.032;2023-02-26T02:54:18;5.43;;;3.27;;
1507;SDS011;745;48.586;10.032;2023-02-26T02:58:58;3.63;;;2.83;;
1507;SDS011;745;48.586;10.032;2023-02-26T03:08:07;3.40;;;2.73;;
1507;SDS011;745;48.586;10.032;2023-02-26T03:12:39;6.57;;;3.30;;
1507;SDS011;745;48.586;10.032;2023-02-26T03:22:17;4.63;;;3.30;;
1507;SDS011;745;48.586;10.032;2023-02-26T03:27:25;4.00;;;2.40;;
1507;SDS011;745;48.586;10.032;2023-02-26T03:32:22;3.40;;;3.10;;
1507;SDS011;745;48.586;10.032;2023-02-26T03:37:01;4.83;;;3.80;;
1507;SDS011;745;48.586;10.032;2023-02-26T03:46:34;4.03;;;3.60;;
1507;SDS011;745;48.586;10.032;2023-02-26T03:51:07;3.40;;;3.10;;
1507;SDS011;745;48.586;10.032;2023-02-26T03:55:46;7.80;;;3.60;;
1507;SDS011;745;48.586;10.032;2023-02-26T04:00:37;5.33;;;3.13;;
1507;SDS011;745;48.586;10.032;2023-02-26T04:05:14;4.07;;;2.70;;
1507;SDS011;745;48.586;10.032;2023-02-26T04:09:47;3.53;;;2.70;;
1507;SDS011;745;48.586;10.032;2023-02-26T04:14:19;5.17;;;2.37;;
1507;SDS011;745;48.586;10.032;2023-02-26T04:18:50;2.40;;;2.20;;
1507;SDS011;745;48.586;10.032;2023-02-26T04:23:20;3.23;;;2.90;;
1507;SDS011;745;48.586;10.032;2023-02-26T04:27:51;1.83;;;1.73;;
1507;SDS011;745;48.586;10.032;2023-02-26T04:32:21;2.50;;;2.13;;
1507;SDS011;745;48.586;10.032;2023-02-26T04:36:51;1.83;;;1.73;;
1507;SDS011;745;48.586;10.032;2023-02-26T04:41:22;2.57;;;1.63;;
1507;SDS011;745;48.586;10.032;2023-02-26T04:45:52;1.57;;;1.47;;
1507;SDS011;745;48.586;10.032;2023-02-26T04:50:23;2.50;;;1.67;;
1507;SDS011;745;48.586;10.032;2023-02-26T04:54:53;2.03;;;1.80;;
1507;SDS011;745;48.586;10.032;2023-02-26T04:59:24;1.40;;;1.27;;
1507;SDS011;745;48.586;10.032;2023-02-26T05:03:54;5.07;;;1.97;;
1507;SDS011;745;48.586;10.032;2023-02-26T05:08:24;2.03;;;1.80;;
1507;SDS011;745;48.586;10.032;2023-02-26T05:12:55;1.60;;;1.50;;
1507;SDS011;745;48.586;10.032;2023-02-26T05:17:25;1.70;;;1.60;;
1507;SDS011;745;48.586;10.032;2023-02-26T05:21:56;3.07;;;1.60;;
1507;SDS011;745;48.586;10.032;2023-02-26T05:26:26;1.90;;;1.80;;
1507;SDS011;745;48.586;10.032;2023-02-26T05:30:56;2.70;;;2.47;;
1507;SDS011;745;48.586;10.032;2023-02-26T05:35:27;2.50;;;2.30;;
1507;SDS011;745;48.586;10.032;2023-02-26T05:39:57;5.33;;;2.43;;
1507;SDS011;745;48.586;10.032;2023-02-26T05:44:28;5.97;;;2.37;;
1507;SDS011;745;48.586;10.032;2023-02-26T05:48:58;3.67;;;2.13;;
1507;SDS011;745;48.586;10.032;2023-02-26T05:53:28;2.93;;;2.00;;
1507;SDS011;745;48.586;10.032;2023-02-26T05:57:59;2.00;;;1.90;;
1507;SDS011;745;48.586;10.032;2023-02-26T06:02:29;5.33;;;2.43;;
1507;SDS011;745;48.586;10.032;2023-02-26T06:07:00;6.87;;;2.33;;
1507;SDS011;745;48.586;10.032;2023-02-26T06:11:31;3.00;;;2.30;;
1507;SDS011;745;48.586;10.032;2023-02-26T06:16:01;2.13;;;1.93;;
1507;SDS011;745;48.586;10.032;2023-02-26T06:20:32;2.70;;;2.00;;
1507;SDS011;745;48.586;10.032;2023-02-26T06:25:02;3.53;;;2.20;;
1507;SDS011;745;48.586;10.032;2023-02-26T06:29:33;3.90;;;2.30;;
1507;SDS011;745;48.586;10.032;2023-02-26T06:34:04;1.93;;;1.80;;
1507;SDS011;745;48.586;10.032;2023-02-26T06:38:34;2.00;;;1.80;;
1507;SDS011;745;48.586;10.032;2023-02-26T06:43:04;3.53;;;1.90;;
1507;SDS011;745;48.586;10.032;2023-02-26T06:47:35;2.80;;;2.00;;
1507;SDS011;745;48.586;10.032;2023-02-26T06:52:05;7.77;;;3.10;;
1507;SDS011;745;48.586;10.032;2023-02-26T06:56:36;2.90;;;2.10;;
1507;SDS011;745;48.586;10.032;2023-02-26T07:01:06;3.50;;;2.33;;
1507;SDS011;745;48.586;10.032;2023-02-26T07:05:36;3.17;;;2.20;;
1507;SDS011;745;48.586;10.032;2023-02-26T07:10:07;1.90;;;1.80;;
1507;SDS011;745;48.586;10.032;2023-02-26T07:14:39;2.40;;;1.70;;
1507;SDS011;745;48.586;10.032;2023-02-26T07:19:12;2.00;;;1.90;;
1507;SDS011;745;48.586;10.032;2023-02-26T07:23:42;2.20;;;2.00;;
1507;SDS011;745;48.586;10.032;2023-02-26T07:28:12;4.60;;;2.03;;
1507;SDS011;745;48.586;10.032;2023-02-26T07:32:43;4.13;;;2.27;;
1507;SDS011;745;48.586;10.032;2023-02-26T07:37:13;3.53;;;2.10;;
1507;SDS011;745;48.586;10.032;2023-02-26T07:41:43;3.63;;;2.43;;
1507;SDS011;745;48.586;10.032;2023-02-26T07:46:14;4.63;;;2.27;;
1507;SDS011;745;48.586;10.032;2023-02-26T07:50:44;3.30;;;2.53;;
1507;SDS011;745;48.586;10.032;2023-02-26T07:55:14;3.73;;;2.50;;
1507;SDS011;745;48.586;10.032;2023-02-26T07:59:45;3.83;;;2.20;;
1507;SDS011;745;48.586;10.032;2023-02-26T08:04:15;2.90;;;2.17;;
1507;SDS011;745;48.586;10.032;2023-02-26T08:08:45;2.67;;;2.27;;
1507;SDS011;745;48.586;10.032;2023-02-26T08:13:16;2.60;;;2.40;;
1507;SDS011;745;48.586;10.032;2023-02-26T08:17:47;3.40;;;2.40;;
1507;SDS011;745;48.586;10.032;2023-02-26T08:22:17;5.93;;;2.33;;
1507;SDS011;745;48.586;10.032;2023-02-26T08:26:48;2.20;;;2.10;;
1507;SDS011;745;48.586;10.032;2023-02-26T08:31:19;2.30;;;2.10;;
1507;SDS011;745;48.586;10.032;2023-02-26T08:35:49;2.30;;;2.10;;
1507;SDS011;745;48.586;10.032;2023-02-26T08:40:20;2.60;;;2.40;;
1507;SDS011;745;48.586;10.032;2023-02-26T08:44:50;2.47;;;2.00;;
1507;SDS011;745;48.586;10.032;2023-02-26T08:49:21;3.20;;;2.50;;
1507;SDS011;745;48.586;10.032;2023-02-26T08:53:51;3.00;;;1.93;;
1507;SDS011;745;48.586;10.032;2023-02-26T08:58:22;3.90;;;1.97;;
1507;SDS011;745;48.586;10.032;2023-02-26T09:02:52;2.30;;;2.10;;
1507;SDS011;745;48.586;10.032;2023-02-26T09:07:22;4.07;;;2.10;;
1507;SDS011;745;48.586;10.032;2023-02-26T09:11:53;4.13;;;2.07;;
1507;SDS011;745;48.586;10.032;2023-02-26T09:16:24;2.70;;;2.03;;
1507;SDS011;745;48.586;10.032;2023-02-26T09:20:55;2.37;;;2.27;;
1507;SDS011;745;48.586;10.032;2023-02-26T09:25:25;2.37;;;2.17;;
1507;SDS011;745;48.586;10.032;2023-02-26T09:29:55;2.20;;;2.10;;
1507;SDS011;745;48.586;10.032;2023-02-26T09:34:27;2.50;;;2.30;;
1507;SDS011;745;48.586;10.032;2023-02-26T09:38:57;2.70;;;2.50;;
1507;SDS011;745;48.586;10.032;2023-02-26T09:48:27;2.70;;;2.50;;
1507;SDS011;745;48.586;10.032;2023-02-26T09:53:32;2.57;;;2.40;;
1507;SDS011;745;48.586;10.032;2023-02-26T09:58:03;4.50;;;2.23;;
1507;SDS011;745;48.586;10.032;2023-02-26T10:03:23;2.40;;;2.20;;
1507;SDS011;745;48.586;10.032;2023-02-26T10:16:50;2.53;;;2.33;;
1507;SDS011;745;48.586;10.032;2023-02-26T10:31:25;2.53;;;2.33;;
1507;SDS011;745;48.586;10.032;2023-02-26T10:36:06;3.27;;;2.30;;
1507;SDS011;745;48.586;10.032;2023-02-26T10:41:07;3.50;;;2.77;;
1507;SDS011;745;48.586;10.032;2023-02-26T10:45:57;2.50;;;2.30;;
1507;SDS011;745;48.586;10.032;2023-02-26T10:50:35;2.93;;;2.10;;
1507;SDS011;745;48.586;10.032;2023-02-26T10:59:52;2.47;;;2.27;;
1507;SDS011;745;48.586;10.032;2023-02-26T11:04:23;2.40;;;2.27;;
1507;SDS011;745;48.586;10.032;2023-02-26T11:08:56;2.60;;;2.40;;
1507;SDS011;745;48.586;10.032;2023-02-26T11:13:28;2.70;;;2.50;;
1507;SDS011;745;48.586;10.032;2023-02-26T11:18:00;3.10;;;2.63;;
1507;SDS011;745;48.586;10.032;2023-02-26T11:22:32;3.70;;;2.67;;
1507;SDS011;745;48.586;10.032;2023-02-26T11:27:06;2.80;;;2.33;;
1507;SDS011;745;48.586;10.032;2023-02-26T11:31:40;3.20;;;2.50;;
1507;SDS011;745;48.586;10.032;2023-02-26T11:36:16;3.03;;;2.73;;
1507;SDS011;745;48.586;10.032;2023-02-26T11:40:50;3.00;;;2.80;;
1507;SDS011;745;48.586;10.032;2023-02-26T11:45:23;4.37;;;2.80;;
1507;SDS011;745;48.586;10.032;2023-02-26T11:49:55;3.00;;;2.80;;
1507;SDS011;745;48.586;10.032;2023-02-26T11:54:30;3.50;;;3.20;;
1507;SDS011;745;48.586;10.032;2023-02-26T11:59:05;3.50;;;3.20;;
1507;SDS011;745;48.586;10.032;2023-02-26T12:03:38;4.10;;;3.67;;
1507;SDS011;745;48.586;10.032;2023-02-26T12:08:16;3.07;;;2.83;;
1507;SDS011;745;48.586;10.032;2023-02-26T12:17:37;4.00;;;2.90;;
1507;SDS011;745;48.586;10.032;2023-02-26T12:27:26;3.03;;;2.83;;
1507;SDS011;745;48.586;10.032;2023-02-26T12:32:43;3.20;;;2.90;;
1507;SDS011;745;48.586;10.032;2023-02-26T12:42:23;2.90;;;2.70;;
1507;SDS011;745;48.586;10.032;2023-02-26T12:47:05;3.27;;;2.97;;
1507;SDS011;745;48.586;10.032;2023-02-26T13:21:15;3.20;;;2.90;;
1507;SDS011;745;48.586;10.032;2023-02-26T13:25:50;5.73;;;2.77;;
1507;SDS011;745;48.586;10.032;2023-02-26T13:30:30;2.67;;;2.47;;
1507;SDS011;745;48.586;10.032;2023-02-26T13:35:04;2.50;;;1.87;;
1507;SDS011;745;48.586;10.032;2023-02-26T13:39:39;1.90;;;1.70;;
1507;SDS011;745;48.586;10.032;2023-02-26T13:58:15;1.80;;;1.70;;
1507;SDS011;745;48.586;10.032;2023-02-26T14:03:10;1.60;;;1.50;;
1507;SDS011;745;48.586;10.032;2023-02-26T14:07:48;1.70;;;1.60;;
1507;SDS011;745;48.586;10.032;2023-02-26T14:12:23;2.40;;;1.70;;
1507;SDS011;745;48.586;10.032;2023-02-26T14:21:38;1.80;;;1.70;;
1507;SDS011;745;48.586;10.032;2023-02-26T14:26:19;1.70;;;1.60;;
1507;SDS011;745;48.586;10.032;2023-02-26T14:30:51;1.80;;;1.70;;
1507;SDS011;745;48.586;10.032;2023-02-26T14:35:44;1.80;;;1.67;;
1507;SDS011;745;48.586;10.032;2023-02-26T14:40:17;2.13;;;1.93;;
1507;SDS011;745;48.586;10.032;2023-02-26T14:44:50;1.80;;;1.70;;
1507;SDS011;745;48.586;10.032;2023-02-26T14:49:36;2.53;;;1.50;;
1507;SDS011;745;48.586;10.032;2023-02-26T15:13:49;1.87;;;1.77;;
1507;SDS011;745;48.586;10.032;2023-02-26T15:23:48;1.80;;;1.70;;
1507;SDS011;745;48.586;10.032;2023-02-26T15:28:30;1.80;;;1.70;;
1507;SDS011;745;48.586;10.032;2023-02-26T15:33:09;1.47;;;1.37;;
1507;SDS011;745;48.586;10.032;2023-02-26T15:37:41;1.83;;;1.73;;
1507;SDS011;745;48.586;10.032;2023-02-26T15:42:12;1.67;;;1.57;;
1507;SDS011;745;48.586;10.032;2023-02-26T15:46:43;1.90;;;1.80;;
1507;SDS011;745;48.586;10.032;2023-02-26T15:51:15;1.67;;;1.57;;
1507;SDS011;745;48.586;10.032;2023-02-26T15:55:49;2.43;;;1.63;;
1507;SDS011;745;48.586;10.032;2023-02-26T16:00:21;1.90;;;1.70;;
1507;SDS011;745;48.586;10.032;2023-02-26T16:04:54;3.10;;;1.93;;
1507;SDS011;745;48.586;10.032;2023-02-26T16:13:59;3.30;;;2.20;;
1507;SDS011;745;48.586;10.032;2023-02-26T16:18:31;3.20;;;1.90;;
1507;SDS011;745;48.586;10.032;2023-02-26T16:23:03;2.13;;;1.97;;
1507;SDS011;745;48.586;10.032;2023-02-26T16:27:35;2.70;;;2.23;;
1507;SDS011;745;48.586;10.032;2023-02-26T16:32:06;2.00;;;1.90;;
1507;SDS011;745;48.586;10.032;2023-02-26T16:36:39;2.10;;;1.97;;
1507;SDS011;745;48.586;10.032;2023-02-26T16:41:10;1.90;;;1.70;;
1507;SDS011;745;48.586;10.032;2023-02-26T16:45:42;2.53;;;2.33;;
1507;SDS011;745;48.586;10.032;2023-02-26T16:50:25;3.60;;;2.00;;
1507;SDS011;745;48.586;10.032;2023-02-26T16:54:58;1.90;;;1.80;;
1507;SDS011;745;48.586;10.032;2023-02-26T16:59:34;1.90;;;1.80;;
1507;SDS011;745;48.586;10.032;2023-02-26T17:04:08;3.23;;;2.60;;
1507;SDS011;745;48.586;10.032;2023-02-26T17:08:44;2.70;;;2.20;;
1507;SDS011;745;48.586;10.032;2023-02-26T17:13:28;2.60;;;2.40;;
1507;SDS011;745;48.586;10.032;2023-02-26T17:18:00;1.67;;;1.57;;
1507;SDS011;745;48.586;10.032;2023-02-26T17:22:31;3.03;;;2.77;;
1507;SDS011;745;48.586;10.032;2023-02-26T17:27:02;1.93;;;1.60;;
1507;SDS011;745;48.586;10.032;2023-02-26T17:31:33;2.10;;;1.70;;
1507;SDS011;745;48.586;10.032;2023-02-26T17:36:04;2.60;;;1.90;;
1507;SDS011;745;48.586;10.032;2023-02-26T17:40:34;1.93;;;1.70;;
1507;SDS011;745;48.586;10.032;2023-02-26T17:45:05;4.57;;;2.00;;
1507;SDS011;745;48.586;10.032;2023-02-26T17:49:37;3.77;;;2.20;;
1507;SDS011;745;48.586;10.032;2023-02-26T17:54:07;2.63;;;2.23;;
1507;SDS011;745;48.586;10.032;2023-02-26T17:58:38;2.80;;;2.47;;
1507;SDS011;745;48.586;10.032;2023-02-26T18:03:09;2.50;;;2.30;;
1507;SDS011;745;48.586;10.032;2023-02-26T18:07:39;2.40;;;2.20;;
1507;SDS011;745;48.586;10.032;2023-02-26T18:12:13;2.70;;;2.10;;
1507;SDS011;745;48.586;10.032;2023-02-26T18:16:47;2.40;;;2.20;;
1507;SDS011;745;48.586;10.032;2023-02-26T18:21:18;2.37;;;2.17;;
1507;SDS011;745;48.586;10.032;2023-02-26T18:25:49;4.20;;;2.57;;
1507;SDS011;745;48.586;10.032;2023-02-26T18:30:23;2.50;;;2.27;;
1507;SDS011;745;48.586;10.032;2023-02-26T18:34:53;2.80;;;2.47;;
1507;SDS011;745;48.586;10.032;2023-02-26T18:39:24;3.17;;;2.67;;
1507;SDS011;745;48.586;10.032;2023-02-26T18:43:59;2.17;;;2.07;;
1507;SDS011;745;48.586;10.032;2023-02-26T18:48:30;3.53;;;2.53;;
1507;SDS011;745;48.586;10.032;2023-02-26T18:53:01;3.37;;;2.33;;
1507;SDS011;745;48.586;10.032;2023-02-26T18:57:31;2.63;;;2.43;;
1507;SDS011;745;48.586;10.032;2023-02-26T19:02:03;2.60;;;2.30;;
1507;SDS011;745;48.586;10.032;2023-02-26T19:06:33;2.40;;;2.20;;
1507;SDS011;745;48.586;10.032;2023-02-26T19:11:04;2.57;;;2.37;;
1507;SDS011;745;48.586;10.032;2023-02-26T19:15:34;2.03;;;1.93;;
1507;SDS011;745;48.586;10.032;2023-02-26T19:20:05;2.20;;;2.00;;
1507;SDS011;745;48.586;10.032;2023-02-26T19:24:36;3.07;;;2.30;;
1507;SDS011;745;48.586;10.032;2023-02-26T19:29:07;2.40;;;2.20;;
1507;SDS011;745;48.586;10.032;2023-02-26T19:33:39;2.13;;;1.97;;
1507;SDS011;745;48.586;10.032;2023-02-26T19:38:09;1.93;;;1.83;;
1507;SDS011;745;48.586;10.032;2023-02-26T19:42:40;3.50;;;1.90;;
1507;SDS011;745;48.586;10.032;2023-02-26T19:47:11;3.13;;;2.13;;
1507;SDS011;745;48.586;10.032;2023-02-26T19:51:41;2.53;;;2.30;;
1507;SDS011;745;48.586;10.032;2023-02-26T19:56:12;2.27;;;2.17;;
1507;SDS011;745;48.586;10.032;2023-02-26T20:00:43;4.53;;;2.67;;
1507;SDS011;745;48.586;10.032;2023-02-26T20:05:14;2.50;;;2.30;;
1507;SDS011;745;48.586;10.032;2023-02-26T20:09:46;2.77;;;2.57;;
1507;SDS011;745;48.586;10.032;2023-02-26T20:14:17;2.40;;;2.03;;
1507;SDS011;745;48.586;10.032;2023-02-26T20:18:47;2.33;;;2.13;;
1507;SDS011;745;48.586;10.032;2023-02-26T20:23:18;2.53;;;2.27;;
1507;SDS011;745;48.586;10.032;2023-02-26T20:27:48;3.07;;;2.53;;
1507;SDS011;745;48.586;10.032;2023-02-26T20:32:18;2.23;;;2.13;;
1507;SDS011;745;48.586;10.032;2023-02-26T20:36:49;6.20;;;2.53;;
1507;SDS011;745;48.586;10.032;2023-02-26T20:41:19;2.67;;;2.47;;
1507;SDS011;745;48.586;10.032;2023-02-26T20:45:50;4.80;;;2.50;;
1507;SDS011;745;48.586;10.032;2023-02-26T20:50:21;2.73;;;2.43;;
1507;SDS011;745;48.586;10.032;2023-02-26T20:54:51;2.53;;;2.20;;
1507;SDS011;745;48.586;10.032;2023-02-26T20:59:21;2.40;;;2.20;;
1507;SDS011;745;48.586;10.032;2023-02-26T21:03:52;3.70;;;2.97;;
1507;SDS011;745;48.586;10.032;2023-02-26T21:08:23;2.10;;;1.97;;
1507;SDS011;745;48.586;10.032;2023-02-26T21:12:53;2.67;;;2.27;;
1507;SDS011;745;48.586;10.032;2023-02-26T21:17:24;3.00;;;2.43;;
1507;SDS011;745;48.586;10.032;2023-02-26T21:21:55;2.80;;;2.40;;
1507;SDS011;745;48.586;10.032;2023-02-26T21:26:26;5.40;;;2.67;;
1507;SDS011;745;48.586;10.032;2023-02-26T21:30:56;3.47;;;2.73;;
1507;SDS011;745;48.586;10.032;2023-02-26T21:35:27;3.37;;;2.43;;
1507;SDS011;745;48.586;10.032;2023-02-26T21:39:57;2.83;;;2.10;;
1507;SDS011;745;48.586;10.032;2023-02-26T21:44:29;2.47;;;2.27;;
1507;SDS011;745;48.586;10.032;2023-02-26T21:49:01;2.20;;;2.10;;
1507;SDS011;745;48.586;10.032;2023-02-26T21:53:31;3.10;;;2.70;;
1507;SDS011;745;48.586;10.032;2023-02-26T21:58:01;4.43;;;2.83;;
1507;SDS011;745;48.586;10.032;2023-02-26T22:02:32;2.60;;;2.40;;
1507;SDS011;745;48.586;10.032;2023-02-26T22:07:02;2.43;;;2.33;;
1507;SDS011;745;48.586;10.032;2023-02-26T22:11:33;2.57;;;2.37;;
1507;SDS011;745;48.586;10.032;2023-02-26T22:16:03;2.93;;;2.33;;
1507;SDS011;745;48.586;10.032;2023-02-26T22:20:34;4.10;;;2.70;;
1507;SDS011;745;48.586;10.032;2023-02-26T22:25:04;3.03;;;2.73;;
1507;SDS011;745;48.586;10.032;2023-02-26T22:29:36;3.10;;;2.80;;
1507;SDS011;745;48.586;10.032;2023-02-26T22:34:08;3.13;;;2.43;;
1507;SDS011;745;48.586;10.032;2023-02-26T22:38:39;3.20;;;2.90;;
1507;SDS011;745;48.586;10.032;2023-02-26T22:43:09;2.57;;;2.37;;
1507;SDS011;745;48.586;10.032;2023-02-26T22:47:39;2.90;;;2.53;;
1507;SDS011;745;48.586;10.032;2023-02-26T22:52:10;3.40;;;2.90;;
1507;SDS011;745;48.586;10.032;2023-02-26T22:56:40;3.20;;;2.90;;
1507;SDS011;745;48.586;10.032;2023-02-26T23:01:11;3.17;;;2.63;;
1507;SDS011;745;48.586;10.032;2023-02-26T23:05:41;4.10;;;2.77;;
1507;SDS011;745;48.586;10.032;2023-02-26T23:10:12;4.50;;;2.60;;
1507;SDS011;745;48.586;10.032;2023-02-26T23:14:44;2.70;;;2.50;;
1507;SDS011;745;48.586;10.032;2023-02-26T23:19:15;2.80;;;2.47;;
1507;SDS011;745;48.586;10.032;2023-02-26T23:23:45;2.70;;;2.43;;
1507;SDS011;745;48.586;10.032;2023-02-26T23:28:15;2.93;;;2.30;;
1507;SDS011;745;48.586;10.032;2023-02-26T23:32:46;2.33;;;2.13;;
1507;SDS011;745;48.586;10.032;2023-02-26T23:37:17;2.60;;;2.40;;
1507;SDS011;745;48.586;10.032;2023-02-26T23:41:47;3.63;;;2.43;;
1507;SDS011;745;48.586;10.032;2023-02-26T23:46:17;4.37;;;2.50;;
1507;SDS011;745;48.586;10.032;2023-02-26T23:50:48;3.80;;;3.13;;
1507;SDS011;745;48.586;10.032;2023-02-26T23:55:18;2.37;;;2.17;;
1507;SDS011;745;48.586;10.032;2023-02-26T23:59:49;2.50;;;2.30;;
